Time;durP1;ratioP1;P1;durP2;ratioP2;P2;SDS_P1;SDS_P2;PMS_P1;PMS_P2;Temp;Humidity;BMP_temperature;BMP_pressure;BME280_temperature;BME280_humidity;BME280_pressure;Samples;Min_cycle;Max_cycle;Signal;HPM_P1;HPM_P2
2022/07/13 00:00:00;;;;;;;7.13;6.43;;;22.40;89.20;;;;;;5067786;28;20031;-62
2022/07/13 00:02:26;;;;;;;10.27;6.47;;;22.40;89.40;;;;;;5066730;28;20031;-62
2022/07/13 00:04:51;;;;;;;7.93;6.63;;;22.40;89.80;;;;;;5065517;28;20030;-62
2022/07/13 00:07:17;;;;;;;7.60;6.60;;;22.30;90.00;;;;;;5066535;28;20599;-62
2022/07/13 00:09:43;;;;;;;7.75;6.10;;;22.30;90.10;;;;;;5064818;28;20104;-62
2022/07/13 00:12:08;;;;;;;9.88;6.97;;;22.20;90.30;;;;;;5065893;28;20571;-62
2022/07/13 00:14:34;;;;;;;8.70;6.82;;;22.20;90.60;;;;;;5066277;28;20070;-62
2022/07/13 00:17:00;;;;;;;7.47;6.78;;;22.20;90.80;;;;;;5066171;28;20074;-62
2022/07/13 00:19:25;;;;;;;10.18;7.35;;;22.20;90.90;;;;;;5066226;28;20095;-62
2022/07/13 00:21:51;;;;;;;8.55;6.57;;;22.20;91.10;;;;;;5066142;28;20419;-61
2022/07/13 00:24:16;;;;;;;7.80;7.07;;;22.10;91.20;;;;;;5068455;28;20028;-62
2022/07/13 00:26:42;;;;;;;7.50;6.75;;;22.10;91.40;;;;;;5066892;28;20435;-62
2022/07/13 00:29:08;;;;;;;8.13;6.45;;;22.10;91.50;;;;;;5064740;28;20028;-62
2022/07/13 00:31:33;;;;;;;7.38;6.68;;;22.00;91.60;;;;;;5066406;28;20041;-64
2022/07/13 00:33:59;;;;;;;7.43;6.72;;;22.00;91.70;;;;;;5066070;28;20070;-61
2022/07/13 00:36:25;;;;;;;9.15;7.05;;;22.00;91.90;;;;;;5067899;28;20043;-63
2022/07/13 00:38:50;;;;;;;7.28;6.57;;;22.00;92.00;;;;;;5065862;28;20086;-62
2022/07/13 00:41:16;;;;;;;7.28;6.32;;;22.00;92.10;;;;;;5065214;28;20396;-62
2022/07/13 00:43:42;;;;;;;6.97;6.28;;;22.00;92.10;;;;;;5063574;28;20426;-62
2022/07/13 00:46:08;;;;;;;7.35;6.18;;;22.00;92.10;;;;;;5068008;28;20067;-62
2022/07/13 00:48:34;;;;;;;9.88;8.90;;;22.00;92.10;;;;;;5066626;28;20070;-62
2022/07/13 00:51:00;;;;;;;10.85;9.75;;;21.90;92.20;;;;;;5067458;28;20036;-62
2022/07/13 00:53:25;;;;;;;11.80;9.65;;;21.80;92.30;;;;;;5064414;28;20044;-62
2022/07/13 00:55:51;;;;;;;9.57;8.65;;;21.70;92.50;;;;;;5067712;28;20035;-62
2022/07/13 00:58:17;;;;;;;10.32;9.13;;;21.60;92.60;;;;;;5068233;28;20028;-62
2022/07/13 01:00:43;;;;;;;10.18;9.18;;;21.60;93.10;;;;;;5065912;28;20043;-62
2022/07/13 01:03:09;;;;;;;10.30;9.20;;;21.50;92.90;;;;;;5066483;28;20103;-62
2022/07/13 01:05:34;;;;;;;10.27;9.23;;;21.50;92.90;;;;;;5065922;28;20104;-62
2022/07/13 01:08:03;;;;;;;9.82;8.88;;;21.50;92.90;;;;;;5065063;28;20017;-62
2022/07/13 01:10:29;;;;;;;11.90;7.82;;;21.50;92.90;;;;;;5067983;28;20028;-61
2022/07/13 01:12:55;;;;;;;9.00;7.65;;;21.40;92.80;;;;;;5067187;28;20032;-62
2022/07/13 01:15:22;;;;;;;5.85;5.28;;;21.40;92.70;;;;;;5068319;28;20036;-62
2022/07/13 01:17:48;;;;;;;6.30;5.70;;;21.50;92.60;;;;;;5069247;28;20094;-62
2022/07/13 01:20:15;;;;;;;7.47;6.20;;;21.50;92.40;;;;;;5066122;28;20477;-62
2022/07/13 01:22:47;;;;;;;7.90;7.10;;;21.60;92.20;;;;;;5065231;28;20514;-62
2022/07/13 01:25:14;;;;;;;7.50;5.72;;;21.60;91.80;;;;;;5066584;28;20020;-62
2022/07/13 01:27:41;;;;;;;6.93;6.13;;;21.60;91.80;;;;;;5070051;28;20025;-62
2022/07/13 01:30:08;;;;;;;8.57;7.28;;;21.60;91.70;;;;;;5069766;28;20032;-62
2022/07/13 01:32:47;;;;;;;8.95;6.10;;;21.60;91.40;;;;;;5069809;28;20056;-62
2022/07/13 01:35:13;;;;;;;;;;;21.60;91.20;;;;;;5069998;28;20020;-63
2022/07/13 01:37:39;;;;;;;7.32;5.78;;;21.50;91.30;;;;;;5069139;28;19966;-62
2022/07/13 01:40:05;;;;;;;8.02;5.68;;;21.50;91.40;;;;;;5070884;28;20024;-62
2022/07/13 01:42:31;;;;;;;8.30;6.60;;;21.50;91.20;;;;;;5069603;28;20029;-62
2022/07/13 01:44:58;;;;;;;6.55;5.95;;;21.50;91.00;;;;;;5069149;28;20388;-62
2022/07/13 01:47:24;;;;;;;7.45;6.13;;;21.50;91.00;;;;;;5068772;28;20115;-62
2022/07/13 01:49:49;;;;;;;7.82;7.03;;;21.50;90.90;;;;;;5069986;28;20111;-62
2022/07/13 01:52:15;;;;;;;7.45;6.43;;;21.50;90.90;;;;;;5069757;28;20377;-62
2022/07/13 01:54:40;;;;;;;6.57;5.88;;;21.50;90.90;;;;;;5066977;28;20534;-61
2022/07/13 01:57:06;;;;;;;7.63;6.43;;;21.40;90.80;;;;;;5070951;28;20125;-62
2022/07/13 01:59:31;;;;;;;7.22;6.53;;;21.40;90.70;;;;;;5069246;28;20058;-62
2022/07/13 02:01:57;;;;;;;7.00;6.30;;;21.40;90.60;;;;;;5070186;28;20048;-62
2022/07/13 02:04:22;;;;;;;7.43;6.43;;;21.40;90.80;;;;;;5069077;28;20107;-62
2022/07/13 02:06:49;;;;;;;7.15;6.45;;;21.40;90.60;;;;;;5069374;28;20024;-62
2022/07/13 02:09:14;;;;;;;7.70;7.00;;;21.40;90.90;;;;;;5066083;28;20029;-62
2022/07/13 02:11:40;;;;;;;7.25;6.22;;;21.30;91.10;;;;;;5070508;28;20032;-62
2022/07/13 02:14:06;;;;;;;9.05;7.30;;;21.30;90.80;;;;;;5068785;28;20033;-62
2022/07/13 02:16:31;;;;;;;7.55;6.85;;;21.40;89.70;;;;;;5069307;28;20029;-62
2022/07/13 02:18:57;;;;;;;7.88;6.65;;;21.40;90.20;;;;;;5065967;28;20028;-62
2022/07/13 02:21:22;;;;;;;7.63;6.88;;;21.40;90.20;;;;;;5069416;28;20020;-62
2022/07/13 02:23:48;;;;;;;7.90;7.03;;;21.30;90.30;;;;;;5069673;28;20077;-62
2022/07/13 02:26:13;;;;;;;7.13;6.25;;;21.30;90.00;;;;;;5067628;28;20024;-61
2022/07/13 02:28:39;;;;;;;8.77;7.20;;;21.40;90.00;;;;;;5069377;28;20052;-62
2022/07/13 02:31:04;;;;;;;6.97;6.28;;;21.40;89.90;;;;;;5070861;28;20043;-62
2022/07/13 02:33:30;;;;;;;7.03;6.25;;;21.40;90.00;;;;;;5070273;28;20021;-62
2022/07/13 02:35:55;;;;;;;6.68;5.97;;;21.40;89.70;;;;;;5066614;28;20028;-62
2022/07/13 02:38:21;;;;;;;8.80;6.75;;;21.40;89.70;;;;;;5067510;28;20032;-62
2022/07/13 02:40:46;;;;;;;8.18;6.80;;;21.40;90.10;;;;;;5068495;28;20083;-62
2022/07/13 02:43:12;;;;;;;8.25;6.20;;;21.40;89.40;;;;;;5064880;28;20491;-62
2022/07/13 02:45:37;;;;;;;7.68;6.82;;;21.40;89.10;;;;;;5069663;28;20016;-62
2022/07/13 02:48:03;;;;;;;8.07;7.05;;;21.40;89.00;;;;;;5067093;28;20028;-61
2022/07/13 02:50:28;;;;;;;8.50;6.57;;;21.40;88.60;;;;;;5069147;28;20024;-62
2022/07/13 02:52:54;;;;;;;8.13;6.85;;;21.40;89.10;;;;;;5066926;28;20039;-62
2022/07/13 02:55:20;;;;;;;8.63;7.18;;;21.40;89.00;;;;;;5067953;28;20032;-61
2022/07/13 02:57:46;;;;;;;11.25;7.00;;;21.40;88.50;;;;;;5069586;28;20059;-62
2022/07/13 03:00:12;;;;;;;7.38;6.68;;;21.40;88.70;;;;;;5069598;28;20438;-62
2022/07/13 03:02:38;;;;;;;8.70;5.93;;;21.40;88.90;;;;;;5066600;28;20020;-62
2022/07/13 03:05:04;;;;;;;15.70;7.70;;;21.30;88.70;;;;;;5069337;28;20082;-62
2022/07/13 03:07:29;;;;;;;8.90;6.63;;;21.40;88.80;;;;;;5065715;28;20035;-62
2022/07/13 03:09:55;;;;;;;9.05;7.07;;;21.30;88.50;;;;;;5067015;28;20025;-62
2022/07/13 03:12:20;;;;;;;8.23;6.32;;;21.30;88.80;;;;;;5068837;28;20050;-62
2022/07/13 03:14:46;;;;;;;7.90;6.50;;;21.30;88.90;;;;;;5068452;28;20145;-62
2022/07/13 03:17:11;;;;;;;8.30;7.18;;;21.30;88.90;;;;;;5065350;28;20108;-62
2022/07/13 03:19:37;;;;;;;9.15;7.00;;;21.30;89.00;;;;;;5069473;28;20472;-61
2022/07/13 03:22:04;;;;;;;7.97;6.78;;;21.30;89.00;;;;;;5067394;28;20049;-62
2022/07/13 03:24:30;;;;;;;7.25;6.55;;;21.30;89.20;;;;;;5067994;28;20098;-62
2022/07/13 03:26:55;;;;;;;9.52;7.80;;;21.30;89.30;;;;;;5067820;28;20106;-62
2022/07/13 03:29:21;;;;;;;9.20;6.00;;;21.20;89.70;;;;;;5067744;28;20812;-62
2022/07/13 03:31:46;;;;;;;9.57;6.95;;;21.20;89.50;;;;;;5064889;28;20520;-62
2022/07/13 03:34:12;;;;;;;8.60;6.93;;;21.20;89.80;;;;;;5068916;28;20028;-62
2022/07/13 03:36:37;;;;;;;8.82;6.55;;;21.10;90.00;;;;;;5068290;28;20075;-61
2022/07/13 03:39:03;;;;;;;9.68;8.63;;;21.10;90.00;;;;;;5069021;28;20037;-62
2022/07/13 03:41:28;;;;;;;12.65;8.73;;;21.10;89.50;;;;;;5066856;28;20065;-62
2022/07/13 03:43:54;;;;;;;13.93;7.90;;;21.10;89.50;;;;;;5069204;28;20434;-62
2022/07/13 03:46:19;;;;;;;11.55;8.65;;;21.10;89.90;;;;;;5067511;28;20025;-61
2022/07/13 03:48:45;;;;;;;8.88;7.97;;;21.10;90.20;;;;;;5068404;28;20708;-62
2022/07/13 03:51:10;;;;;;;8.30;7.18;;;21.00;90.40;;;;;;5066714;28;20035;-62
2022/07/13 03:53:36;;;;;;;10.23;7.72;;;21.00;90.60;;;;;;5067719;28;20032;-62
2022/07/13 03:56:02;;;;;;;11.23;9.02;;;21.00;90.60;;;;;;5065570;28;20040;-61
2022/07/13 03:58:27;;;;;;;10.75;8.52;;;21.00;90.70;;;;;;5068481;28;20025;-62
2022/07/13 04:00:53;;;;;;;9.68;8.70;;;21.00;90.70;;;;;;5067048;28;20690;-63
2022/07/13 04:03:19;;;;;;;9.02;7.97;;;20.90;91.00;;;;;;5067184;28;20028;-62
2022/07/13 04:05:44;;;;;;;9.15;8.02;;;20.90;91.00;;;;;;5066633;28;20549;-62
2022/07/13 04:08:10;;;;;;;10.63;8.30;;;20.90;91.00;;;;;;5066253;28;20035;-62
2022/07/13 04:10:36;;;;;;;8.77;7.88;;;20.90;91.20;;;;;;5067243;28;20021;-62
2022/07/13 04:13:01;;;;;;;13.00;8.88;;;20.80;91.20;;;;;;5067920;28;20450;-61
2022/07/13 04:15:27;;;;;;;9.35;7.40;;;20.90;91.20;;;;;;5066840;28;20032;-62
2022/07/13 04:17:52;;;;;;;10.05;8.27;;;20.80;91.50;;;;;;5067021;28;20074;-62
2022/07/13 04:20:18;;;;;;;8.57;7.55;;;20.90;91.60;;;;;;5068190;28;20483;-62
2022/07/13 04:22:43;;;;;;;10.18;8.93;;;20.90;91.60;;;;;;5066937;28;20024;-62
2022/07/13 04:25:09;;;;;;;8.52;6.57;;;20.90;91.60;;;;;;5066197;28;20058;-62
2022/07/13 04:27:35;;;;;;;14.05;9.70;;;20.90;91.60;;;;;;5064966;28;20373;-62
2022/07/13 04:30:01;;;;;;;9.73;8.52;;;20.90;91.70;;;;;;5066184;28;20017;-62
2022/07/13 04:32:27;;;;;;;10.05;8.57;;;20.90;91.70;;;;;;5064699;28;20028;-62
2022/07/13 04:34:52;;;;;;;10.52;9.40;;;20.90;91.80;;;;;;5067295;28;20035;-62
2022/07/13 04:37:18;;;;;;;11.40;9.40;;;20.90;91.80;;;;;;5065957;28;20162;-62
2022/07/13 04:39:43;;;;;;;11.35;9.55;;;20.90;91.80;;;;;;5066212;28;20039;-62
2022/07/13 04:42:09;;;;;;;9.57;8.65;;;20.90;91.90;;;;;;5065898;28;20134;-61
2022/07/13 04:44:34;;;;;;;11.65;8.80;;;20.90;92.00;;;;;;5066234;28;20063;-62
2022/07/13 04:47:00;;;;;;;10.70;8.32;;;20.90;91.90;;;;;;5081460;28;20089;-62
2022/07/13 04:49:25;;;;;;;10.38;8.57;;;20.90;92.00;;;;;;5064916;28;20468;-62
2022/07/13 04:51:51;;;;;;;10.15;9.15;;;21.00;91.90;;;;;;5081501;28;20034;-62
2022/07/13 04:54:21;;;;;;;10.90;9.18;;;21.00;92.00;;;;;;5066280;28;20666;-62
2022/07/13 04:56:47;;;;;;;13.90;10.73;;;21.00;91.90;;;;;;5067607;28;20040;-62
2022/07/13 04:59:14;;;;;;;10.55;9.45;;;21.00;91.90;;;;;;5064403;28;20089;-62
2022/07/13 05:01:40;;;;;;;11.52;9.50;;;21.10;91.80;;;;;;5068986;28;20035;-61
2022/07/13 05:04:05;;;;;;;12.60;9.95;;;21.10;91.90;;;;;;5071636;28;20020;-61
2022/07/13 05:06:31;;;;;;;13.15;10.00;;;21.10;92.00;;;;;;5072337;28;20021;-62
2022/07/13 05:08:58;;;;;;;9.45;8.55;;;21.10;92.00;;;;;;5070437;28;20115;-63
2022/07/13 05:11:24;;;;;;;11.55;9.05;;;21.10;91.80;;;;;;5070367;28;20025;-62
2022/07/13 05:13:49;;;;;;;9.80;8.27;;;21.10;91.70;;;;;;5070229;28;20043;-62
2022/07/13 05:16:15;;;;;;;8.57;7.50;;;21.20;91.70;;;;;;5070721;28;20498;-62
2022/07/13 05:18:40;;;;;;;8.50;7.22;;;21.30;91.50;;;;;;5069497;28;20484;-62
2022/07/13 05:21:06;;;;;;;7.95;7.15;;;21.30;91.30;;;;;;5069913;28;20384;-62
2022/07/13 05:23:33;;;;;;;7.00;5.78;;;21.30;91.00;;;;;;5069163;28;20025;-62
2022/07/13 05:25:58;;;;;;;7.38;5.97;;;21.40;90.80;;;;;;5085010;28;20643;-62
2022/07/13 05:28:24;;;;;;;7.07;5.55;;;21.50;90.60;;;;;;5067943;28;20031;-62
2022/07/13 05:30:50;;;;;;;8.38;5.00;;;21.60;90.40;;;;;;5071346;28;20597;-62
2022/07/13 05:33:18;;;;;;;6.65;4.30;;;21.70;90.40;;;;;;5070209;28;20576;-62
2022/07/13 05:35:44;;;;;;;4.68;4.20;;;21.80;90.00;;;;;;5067584;28;20028;-62
2022/07/13 05:38:09;;;;;;;5.68;3.58;;;21.90;89.30;;;;;;5066313;28;20027;-62
2022/07/13 05:40:35;;;;;;;6.78;4.15;;;22.00;88.50;;;;;;5070483;28;20037;-62
2022/07/13 05:43:00;;;;;;;6.53;4.57;;;22.10;87.40;;;;;;5068335;28;20113;-62
2022/07/13 05:45:26;;;;;;;3.92;3.22;;;22.20;87.10;;;;;;5070470;28;20107;-62
2022/07/13 05:47:51;;;;;;;4.00;3.35;;;22.20;86.60;;;;;;5067351;28;20029;-62
2022/07/13 05:50:17;;;;;;;5.20;3.42;;;22.30;86.50;;;;;;5060330;28;20036;-62
2022/07/13 05:52:43;;;;;;;3.60;3.13;;;22.30;86.30;;;;;;5072812;28;20063;-62
2022/07/13 05:55:10;;;;;;;5.55;3.67;;;22.40;86.20;;;;;;5071977;28;20033;-62
2022/07/13 05:57:36;;;;;;;5.97;3.58;;;22.40;85.80;;;;;;5071100;28;20048;-62
2022/07/13 06:00:03;;;;;;;3.53;2.90;;;22.40;85.70;;;;;;5071144;28;20024;-62
2022/07/13 06:02:28;;;;;;;3.65;2.97;;;22.40;85.60;;;;;;5066371;28;20059;-61
2022/07/13 06:04:54;;;;;;;4.72;3.63;;;22.50;85.50;;;;;;5068781;28;20479;-62
2022/07/13 06:07:19;;;;;;;4.07;3.45;;;22.60;85.40;;;;;;5068111;28;20070;-62
2022/07/13 06:09:45;;;;;;;3.15;2.85;;;22.60;85.20;;;;;;5070560;28;20020;-62
2022/07/13 06:12:10;;;;;;;4.07;3.67;;;22.70;85.20;;;;;;5067392;28;20099;-62
2022/07/13 06:14:36;;;;;;;4.57;3.47;;;22.80;84.90;;;;;;5071021;28;20201;-62
2022/07/13 06:17:01;;;;;;;4.93;3.83;;;22.80;84.60;;;;;;5067934;28;20366;-62
2022/07/13 06:19:27;;;;;;;4.68;3.70;;;22.90;84.30;;;;;;5065603;28;20029;-62
2022/07/13 06:21:52;;;;;;;4.30;3.42;;;23.00;84.10;;;;;;5063600;28;20028;-63
2022/07/13 06:24:18;;;;;;;4.47;3.63;;;23.00;83.90;;;;;;5065526;28;20022;-62
2022/07/13 06:26:44;;;;;;;5.93;4.07;;;23.00;83.70;;;;;;5061804;28;20024;-62
2022/07/13 06:29:10;;;;;;;5.82;3.50;;;23.10;82.50;;;;;;5056213;28;20127;-62
2022/07/13 06:31:35;;;;;;;6.07;3.55;;;23.20;82.40;;;;;;5060169;28;20104;-62
2022/07/13 06:34:01;;;;;;;4.63;3.33;;;23.20;82.30;;;;;;5054006;28;20033;-62
2022/07/13 06:36:26;;;;;;;4.47;2.83;;;23.30;82.00;;;;;;5062153;28;20104;-62
2022/07/13 06:38:52;;;;;;;4.68;3.50;;;23.40;81.90;;;;;;5063472;28;20036;-62
2022/07/13 06:41:18;;;;;;;5.85;2.63;;;23.50;81.50;;;;;;5069775;28;20027;-61
2022/07/13 06:43:44;;;;;;;4.35;3.00;;;23.60;81.30;;;;;;5061918;28;20024;-62
2022/07/13 06:46:10;;;;;;;4.80;3.60;;;23.70;81.10;;;;;;5054803;28;20021;-62
2022/07/13 06:48:36;;;;;;;4.22;3.20;;;23.80;80.80;;;;;;5054670;28;20040;-62
2022/07/13 06:51:01;;;;;;;3.95;3.15;;;23.80;80.80;;;;;;5056057;28;20060;-62
2022/07/13 06:53:27;;;;;;;3.30;2.58;;;23.90;80.60;;;;;;5069974;28;20709;-62
2022/07/13 06:55:54;;;;;;;5.32;2.65;;;24.00;80.20;;;;;;5051596;28;20512;-62
2022/07/13 06:58:21;;;;;;;5.00;2.92;;;24.10;79.80;;;;;;5052517;28;20020;-62
2022/07/13 07:01:15;;;;;;;4.50;2.70;;;24.20;79.40;;;;;;5052667;28;20025;-62
2022/07/13 07:04:16;;;;;;;6.90;3.03;;;24.30;79.30;;;;;;5052357;28;20103;-62
2022/07/13 07:06:41;;;;;;;4.70;2.78;;;24.40;78.60;;;;;;5055185;28;20115;-62
2022/07/13 07:12:46;;;;;;;4.97;3.60;;;24.50;77.70;;;;;;4972449;28;20115;-62
2022/07/13 07:15:12;;;;;;;5.13;3.10;;;24.50;77.20;;;;;;5008042;28;20562;-62
2022/07/13 07:17:45;;;;;;;6.28;3.42;;;24.60;77.10;;;;;;5005429;28;20034;-62
2022/07/13 07:20:10;;;;;;;4.68;3.13;;;24.70;76.90;;;;;;4996850;28;20146;-63
2022/07/13 07:22:36;;;;;;;4.82;3.53;;;24.70;77.00;;;;;;5038578;28;20475;-62
2022/07/13 07:25:02;;;;;;;3.90;2.80;;;24.80;77.00;;;;;;5073222;28;20424;-62
2022/07/13 07:27:27;;;;;;;7.20;3.33;;;24.90;76.90;;;;;;5053670;28;20107;-62
2022/07/13 07:29:53;;;;;;;4.60;3.28;;;25.00;76.90;;;;;;5053472;28;20107;-62
2022/07/13 07:32:18;;;;;;;3.72;2.72;;;25.00;77.00;;;;;;5052402;28;20017;-62
2022/07/13 07:37:50;;;;;;;4.90;3.10;;;25.00;77.10;;;;;;5054950;28;20037;-62
2022/07/13 07:40:16;;;;;;;3.90;3.00;;;25.10;77.50;;;;;;5051925;28;20508;-62
2022/07/13 07:43:28;;;;;;;3.20;2.60;;;25.10;77.60;;;;;;5059919;28;20066;-62
2022/07/13 07:45:54;;;;;;;3.50;2.92;;;25.30;77.50;;;;;;5009699;28;20026;-62
2022/07/13 07:48:19;;;;;;;4.00;2.53;;;25.40;77.10;;;;;;5057090;28;20025;-62
2022/07/13 07:50:46;;;;;;;2.70;2.42;;;25.50;76.80;;;;;;5056444;28;20056;-62
2022/07/13 07:53:11;;;;;;;4.65;2.88;;;25.60;76.70;;;;;;5054260;28;20024;-62
2022/07/13 07:55:37;;;;;;;4.75;2.95;;;25.60;76.10;;;;;;5053982;28;20074;-62
2022/07/13 07:58:03;;;;;;;7.00;2.67;;;25.70;76.20;;;;;;5054289;28;20037;-62
2022/07/13 08:00:29;;;;;;;5.03;2.90;;;25.80;75.90;;;;;;5054577;28;20115;-62
2022/07/13 08:03:02;;;;;;;4.82;2.80;;;25.90;75.50;;;;;;5053169;28;20044;-62
2022/07/13 08:05:57;;;;;;;6.32;3.03;;;25.90;75.40;;;;;;5060962;28;20020;-62
2022/07/13 08:08:23;;;;;;;4.75;2.55;;;25.90;75.20;;;;;;5055500;28;20071;-62
2022/07/13 08:10:48;;;;;;;3.13;2.17;;;26.00;74.80;;;;;;5056556;28;20032;-62
2022/07/13 08:13:14;;;;;;;3.63;2.70;;;26.00;74.70;;;;;;5051349;28;20142;-62
2022/07/13 08:15:39;;;;;;;6.43;2.40;;;26.10;75.00;;;;;;5050920;28;20396;-62
2022/07/13 08:18:05;;;;;;;5.82;2.38;;;26.20;74.90;;;;;;5052265;28;20611;-62
2022/07/13 08:20:30;;;;;;;4.68;2.88;;;26.30;75.20;;;;;;5056417;28;20032;-62
2022/07/13 08:22:56;;;;;;;3.30;2.60;;;26.40;75.30;;;;;;5061557;28;20035;-63
2022/07/13 08:25:21;;;;;;;3.88;2.80;;;26.50;75.00;;;;;;5056385;28;20025;-62
2022/07/13 08:27:47;;;;;;;4.70;3.00;;;26.50;74.60;;;;;;5052773;28;20025;-62
2022/07/13 08:30:13;;;;;;;6.13;2.65;;;26.60;74.20;;;;;;5063909;28;20032;-62
2022/07/13 08:32:40;;;;;;;4.57;2.67;;;26.70;74.30;;;;;;5058333;28;20071;-62
2022/07/13 08:40:38;;;;;;;3.95;2.90;;;26.90;73.60;;;;;;5053730;28;20036;-62
2022/07/13 08:43:04;;;;;;;8.43;2.70;;;26.90;73.20;;;;;;5054023;28;20031;-62
2022/07/13 08:45:49;;;;;;;6.18;2.80;;;26.90;72.70;;;;;;5053202;28;20103;-62
2022/07/13 08:51:25;;;;;;;3.67;2.13;;;27.00;71.40;;;;;;5066249;28;20029;-62
2022/07/13 08:53:52;;;;;;;4.75;2.25;;;27.00;71.60;;;;;;5056112;28;20425;-62
2022/07/13 08:57:12;;;;;;;;;;;;;;;;;;;;;
2022/07/13 08:59:38;;;;;;;4.40;2.60;;;27.20;71.30;;;;;;5060022;28;20038;-62
2022/07/13 09:02:08;;;;;;;3.75;2.17;;;27.20;71.10;;;;;;5054017;28;20095;-62
2022/07/13 09:04:34;;;;;;;3.88;2.72;;;27.30;71.10;;;;;;5057003;28;20031;-62
2022/07/13 09:06:59;;;;;;;4.18;2.92;;;27.40;70.60;;;;;;5068878;28;20025;-62
2022/07/13 09:09:27;;;;;;;4.47;2.70;;;27.40;70.20;;;;;;5054534;28;20385;-62
2022/07/13 09:11:52;;;;;;;10.00;3.30;;;27.50;70.40;;;;;;5059758;28;20025;-62
2022/07/13 09:14:24;;;;;;;4.22;2.60;;;27.50;70.10;;;;;;5062595;28;20009;-62
2022/07/13 09:16:52;;;;;;;3.40;2.60;;;27.60;70.10;;;;;;5059144;28;20029;-62
2022/07/13 09:19:17;;;;;;;4.35;2.65;;;27.70;70.00;;;;;;5060652;28;20560;-62
2022/07/13 09:21:43;;;;;;;4.05;3.30;;;27.80;69.90;;;;;;5051981;28;20097;-62
2022/07/13 09:24:40;;;;;;;4.93;2.63;;;27.90;70.50;;;;;;5062887;28;20380;-62
2022/07/13 09:31:00;;;;;;;3.45;2.30;;;28.10;69.30;;;;;;4966959;28;20442;-62
2022/07/13 09:33:37;;;;;;;5.13;3.03;;;28.10;70.30;;;;;;5034696;28;20036;-62
2022/07/13 09:36:26;;;;;;;2.88;2.55;;;28.10;69.30;;;;;;5063499;28;20029;-62
2022/07/13 09:38:52;;;;;;;3.72;2.83;;;28.30;69.00;;;;;;5058887;28;20032;-63
2022/07/13 09:41:25;;;;;;;3.63;2.85;;;28.30;68.80;;;;;;5056383;28;20488;-62
2022/07/13 09:47:20;;;;;;;;;;;;;;;;;;;;;
2022/07/13 09:49:46;;;;;;;5.30;3.28;;;28.50;68.30;;;;;;5056121;28;20024;-62
2022/07/13 09:52:29;;;;;;;4.88;3.08;;;28.50;68.40;;;;;;5066057;28;20548;-62
2022/07/13 09:58:05;;;;;;;3.67;3.00;;;28.70;67.60;;;;;;5050700;28;20041;-62
2022/07/13 10:00:31;;;;;;;3.63;3.00;;;28.80;67.20;;;;;;5069752;28;20103;-62
2022/07/13 10:02:57;;;;;;;3.80;2.88;;;28.80;67.20;;;;;;5064588;28;20099;-62
2022/07/13 10:05:23;;;;;;;4.15;2.10;;;28.80;67.30;;;;;;5066295;28;20421;-62
2022/07/13 10:07:49;;;;;;;3.38;2.00;;;28.90;67.10;;;;;;5074491;28;20020;-62
2022/07/13 10:10:16;;;;;;;3.42;2.20;;;28.90;66.50;;;;;;5062968;28;20057;-63
2022/07/13 10:12:43;;;;;;;5.25;2.40;;;29.00;66.30;;;;;;5053048;28;20500;-62
2022/07/13 10:15:11;;;;;;;4.82;2.08;;;29.20;65.60;;;;;;5057700;28;20469;-62
2022/07/13 10:17:37;;;;;;;2.97;1.88;;;29.30;65.40;;;;;;5053514;28;20481;-62
2022/07/13 10:20:11;;;;;;;2.67;2.25;;;29.50;64.80;;;;;;5054600;28;20473;-62
2022/07/13 10:22:41;;;;;;;2.53;1.83;;;29.60;63.80;;;;;;5054721;28;20021;-62
2022/07/13 10:25:07;;;;;;;5.63;1.90;;;29.60;62.70;;;;;;5064713;28;20020;-62
2022/07/13 10:27:35;;;;;;;2.72;1.80;;;29.60;62.60;;;;;;5056569;28;20103;-63
2022/07/13 10:30:09;;;;;;;2.45;1.55;;;29.70;62.60;;;;;;5054758;28;20112;-62
2022/07/13 10:32:35;;;;;;;3.55;2.00;;;29.90;63.10;;;;;;5061501;28;20115;-63
2022/07/13 10:35:09;;;;;;;3.47;2.08;;;30.00;63.20;;;;;;5058573;28;20032;-63
2022/07/13 10:38:27;;;;;;;2.38;1.60;;;30.00;62.20;;;;;;5054216;28;20021;-62
2022/07/13 10:41:21;;;;;;;3.28;1.70;;;30.00;61.50;;;;;;5057149;28;20469;-63
2022/07/13 10:44:37;;;;;;;3.45;2.00;;;29.80;60.20;;;;;;5061148;28;20017;-63
2022/07/13 10:47:08;;;;;;;2.10;1.80;;;29.80;60.10;;;;;;5054882;28;20033;-63
2022/07/13 10:49:40;;;;;;;4.20;2.08;;;29.80;60.50;;;;;;5058153;28;20481;-63
2022/07/13 10:52:21;;;;;;;2.50;1.90;;;29.80;60.20;;;;;;5070125;28;20029;-63
2022/07/13 10:55:15;;;;;;;3.15;1.58;;;29.90;60.00;;;;;;5057546;28;20028;-63
2022/07/13 10:57:42;;;;;;;3.08;1.67;;;30.00;60.30;;;;;;5053383;28;20404;-63
2022/07/13 11:00:17;;;;;;;2.95;1.80;;;30.10;60.30;;;;;;5057571;28;20052;-63
2022/07/13 11:02:51;;;;;;;2.85;2.17;;;30.30;59.40;;;;;;5065714;28;20016;-63
2022/07/13 11:05:22;;;;;;;4.00;2.78;;;30.40;59.00;;;;;;5061327;28;20021;-63
2022/07/13 11:07:49;;;;;;;3.80;1.98;;;30.50;59.20;;;;;;5063509;28;20021;-63
2022/07/13 11:10:53;;;;;;;2.92;2.03;;;30.60;59.10;;;;;;5064555;28;20029;-63
2022/07/13 11:13:24;;;;;;;3.97;2.03;;;30.60;58.40;;;;;;5058078;28;20041;-62
2022/07/13 11:15:54;;;;;;;3.63;2.08;;;30.80;57.70;;;;;;5051883;28;20032;-62
2022/07/13 11:18:27;;;;;;;3.65;2.30;;;30.80;58.00;;;;;;5068734;28;20102;-63
2022/07/13 11:21:12;;;;;;;3.75;2.50;;;31.00;57.90;;;;;;5053603;28;20483;-63
2022/07/13 11:26:40;;;;;;;3.70;2.00;;;31.40;57.70;;;;;;5053975;28;20443;-62
2022/07/13 11:29:32;;;;;;;2.25;1.55;;;31.50;56.80;;;;;;5053254;28;20508;-62
2022/07/13 11:31:59;;;;;;;2.95;2.08;;;31.50;56.90;;;;;;5064485;28;20090;-63
2022/07/13 11:34:26;;;;;;;3.80;1.63;;;31.70;56.20;;;;;;5064153;28;20025;-63
2022/07/13 11:36:53;;;;;;;3.33;2.05;;;31.80;55.50;;;;;;5066087;28;20088;-63
2022/07/13 11:39:26;;;;;;;3.63;1.83;;;31.90;55.30;;;;;;5066889;28;20020;-63
2022/07/13 11:42:14;;;;;;;5.35;2.13;;;32.00;55.50;;;;;;5062100;28;20139;-63
2022/07/13 11:44:40;;;;;;;5.20;1.77;;;32.00;55.60;;;;;;5067638;28;20033;-63
2022/07/13 11:47:09;;;;;;;5.32;1.55;;;32.00;55.40;;;;;;5063840;28;20028;-63
2022/07/13 11:49:42;;;;;;;3.25;1.88;;;31.90;55.20;;;;;;5076174;28;20507;-63
2022/07/13 11:52:08;;;;;;;4.20;1.55;;;32.00;54.70;;;;;;5060852;28;20047;-63
2022/07/13 11:54:33;;;;;;;2.33;1.98;;;32.00;54.80;;;;;;5052845;28;20456;-63
2022/07/13 11:56:59;;;;;;;3.42;2.20;;;32.10;54.60;;;;;;5060367;28;20055;-63
2022/07/13 11:59:48;;;;;;;2.45;1.58;;;32.10;54.40;;;;;;5060634;28;20025;-63
2022/07/13 12:02:51;;;;;;;4.00;1.55;;;32.20;54.10;;;;;;5058930;28;20159;-63
2022/07/13 12:05:49;;;;;;;3.10;1.50;;;32.30;53.60;;;;;;5063307;28;20036;-63
2022/07/13 12:08:16;;;;;;;5.78;2.50;;;32.30;53.90;;;;;;5061722;28;20441;-63
2022/07/13 12:10:42;;;;;;;2.67;1.63;;;32.30;53.00;;;;;;5052405;28;20106;-63
2022/07/13 12:13:07;;;;;;;4.65;2.08;;;32.40;53.10;;;;;;5061494;28;20087;-63
2022/07/13 12:15:33;;;;;;;4.50;2.03;;;32.70;53.20;;;;;;5072408;28;20052;-63
2022/07/13 12:18:27;;;;;;;;;;;;;;;;;;;;;
2022/07/13 12:20:53;;;;;;;3.30;2.28;;;33.00;52.80;;;;;;5052856;28;20493;-63
2022/07/13 12:23:31;;;;;;;;;;;;;;;;;;;;;
2022/07/13 12:29:33;;;;;;;3.25;2.20;;;33.50;52.00;;;;;;5022907;28;20638;-63
2022/07/13 12:31:59;;;;;;;3.63;2.38;;;33.50;51.60;;;;;;5065715;28;20060;-63
2022/07/13 12:34:25;;;;;;;2.10;1.63;;;33.50;51.70;;;;;;5062705;28;20024;-63
2022/07/13 12:36:51;;;;;;;2.95;2.08;;;33.50;51.30;;;;;;5054589;28;20017;-63
2022/07/13 12:39:36;;;;;;;2.22;2.00;;;33.60;51.00;;;;;;5057562;28;20373;-63
2022/07/13 12:42:02;;;;;;;2.65;1.60;;;33.60;51.10;;;;;;5053510;28;20028;-62
2022/07/13 12:44:32;;;;;;;4.88;1.48;;;33.60;51.00;;;;;;5049663;28;20031;-63
2022/07/13 12:47:02;;;;;;;1.60;1.10;;;33.60;50.60;;;;;;5051501;28;20021;-63
2022/07/13 12:49:38;;;;;;;2.95;1.08;;;33.60;50.10;;;;;;5053538;28;20473;-63
2022/07/13 12:52:08;;;;;;;2.40;1.77;;;33.80;48.80;;;;;;5056464;28;20469;-63
2022/07/13 12:54:46;;;;;;;2.85;0.95;;;33.80;48.60;;;;;;5065003;28;20021;-63
2022/07/13 12:57:40;;;;;;;2.25;1.10;;;33.80;48.30;;;;;;5060964;28;20044;-63
2022/07/13 13:03:03;;;;;;;3.10;1.73;;;34.00;47.80;;;;;;5058440;28;20047;-63
2022/07/13 13:05:29;;;;;;;1.80;1.17;;;33.90;47.40;;;;;;5068463;28;20017;-63
2022/07/13 13:07:54;;;;;;;2.92;1.00;;;33.80;47.10;;;;;;5074387;28;20074;-63
2022/07/13 13:10:20;;;;;;;2.47;1.00;;;33.70;47.50;;;;;;5059926;28;20024;-63
2022/07/13 13:12:45;;;;;;;2.05;1.02;;;33.50;47.60;;;;;;5061889;28;20020;-63
2022/07/13 13:15:11;;;;;;;2.15;1.10;;;33.40;47.80;;;;;;5076368;28;20064;-63
2022/07/13 13:17:36;;;;;;;2.13;1.30;;;33.30;48.00;;;;;;5055222;28;20017;-63
2022/07/13 13:20:02;;;;;;;2.42;0.93;;;33.30;47.80;;;;;;5060053;28;20024;-67
2022/07/13 13:22:28;;;;;;;1.63;0.98;;;33.30;47.80;;;;;;5054679;28;20055;-66
2022/07/13 13:24:53;;;;;;;1.23;0.75;;;33.20;47.40;;;;;;5057644;28;20017;-66
2022/07/13 13:32:54;;;;;;;2.55;1.10;;;33.20;48.10;;;;;;5061832;28;20106;-63
2022/07/13 13:35:20;;;;;;;2.05;1.00;;;33.30;48.40;;;;;;5064796;28;20563;-63
2022/07/13 13:37:47;;;;;;;1.92;0.80;;;33.30;48.30;;;;;;5066749;28;20051;-63